sensor_id;sensor_type;location;lat;lon;timestamp;temperature;humidity
16347;DHT22;8283;48.504;13.734;2023-01-19T00:00:26;8.00;62.80
16347;DHT22;8283;48.504;13.734;2023-01-19T00:03:10;8.10;62.80
16347;DHT22;8283;48.504;13.734;2023-01-19T00:06:04;8.10;62.80
16347;DHT22;8283;48.504;13.734;2023-01-19T00:08:48;8.10;62.80
16347;DHT22;8283;48.504;13.734;2023-01-19T00:11:36;8.10;62.80
16347;DHT22;8283;48.504;13.734;2023-01-19T00:14:21;8.00;62.70
16347;DHT22;8283;48.504;13.734;2023-01-19T00:17:06;8.10;62.90
16347;DHT22;8283;48.504;13.734;2023-01-19T00:19:50;8.00;62.90
16347;DHT22;8283;48.504;13.734;2023-01-19T00:22:35;8.00;62.90
16347;DHT22;8283;48.504;13.734;2023-01-19T00:25:19;8.00;62.90
16347;DHT22;8283;48.504;13.734;2023-01-19T00:28:04;8.00;63.00
16347;DHT22;8283;48.504;13.734;2023-01-19T00:30:49;8.00;62.90
16347;DHT22;8283;48.504;13.734;2023-01-19T00:33:33;8.00;62.90
16347;DHT22;8283;48.504;13.734;2023-01-19T00:36:18;8.00;62.90
16347;DHT22;8283;48.504;13.734;2023-01-19T00:39:03;8.00;62.90
16347;DHT22;8283;48.504;13.734;2023-01-19T00:41:47;8.00;63.00
16347;DHT22;8283;48.504;13.734;2023-01-19T00:44:50;8.00;63.10
16347;DHT22;8283;48.504;13.734;2023-01-19T00:47:35;8.00;63.10
16347;DHT22;8283;48.504;13.734;2023-01-19T00:50:19;8.00;63.20
16347;DHT22;8283;48.504;13.734;2023-01-19T00:53:03;8.00;63.20
16347;DHT22;8283;48.504;13.734;2023-01-19T00:55:48;8.00;63.20
16347;DHT22;8283;48.504;13.734;2023-01-19T00:58:32;8.00;63.30
16347;DHT22;8283;48.504;13.734;2023-01-19T01:01:17;8.00;63.50
16347;DHT22;8283;48.504;13.734;2023-01-19T01:04:01;8.00;63.40
16347;DHT22;8283;48.504;13.734;2023-01-19T01:06:45;7.90;63.40
16347;DHT22;8283;48.504;13.734;2023-01-19T01:09:30;8.00;63.60
16347;DHT22;8283;48.504;13.734;2023-01-19T01:12:15;8.00;63.60
16347;DHT22;8283;48.504;13.734;2023-01-19T01:15:00;8.00;63.60
16347;DHT22;8283;48.504;13.734;2023-01-19T01:17:45;8.00;63.70
16347;DHT22;8283;48.504;13.734;2023-01-19T01:20:32;8.00;63.70
16347;DHT22;8283;48.504;13.734;2023-01-19T01:23:18;8.00;63.70
16347;DHT22;8283;48.504;13.734;2023-01-19T01:26:05;7.70;63.60
16347;DHT22;8283;48.504;13.734;2023-01-19T01:28:50;8.00;63.70
16347;DHT22;8283;48.504;13.734;2023-01-19T01:31:34;8.00;63.80
16347;DHT22;8283;48.504;13.734;2023-01-19T01:34:18;8.00;63.80
16347;DHT22;8283;48.504;13.734;2023-01-19T01:37:03;8.00;63.90
16347;DHT22;8283;48.504;13.734;2023-01-19T01:39:47;8.00;63.80
16347;DHT22;8283;48.504;13.734;2023-01-19T01:42:33;8.00;63.80
16347;DHT22;8283;48.504;13.734;2023-01-19T01:45:33;7.90;63.80
16347;DHT22;8283;48.504;13.734;2023-01-19T01:51:09;7.90;64.00
16347;DHT22;8283;48.504;13.734;2023-01-19T01:54:20;7.90;64.30
16347;DHT22;8283;48.504;13.734;2023-01-19T01:57:07;7.90;64.20
16347;DHT22;8283;48.504;13.734;2023-01-19T01:59:57;7.80;64.20
16347;DHT22;8283;48.504;13.734;2023-01-19T02:02:42;7.80;64.30
16347;DHT22;8283;48.504;13.734;2023-01-19T02:05:40;7.80;64.40
16347;DHT22;8283;48.504;13.734;2023-01-19T02:09:02;7.70;64.20
16347;DHT22;8283;48.504;13.734;2023-01-19T02:12:06;7.70;64.40
16347;DHT22;8283;48.504;13.734;2023-01-19T02:15:17;7.70;64.30
16347;DHT22;8283;48.504;13.734;2023-01-19T02:18:02;7.70;64.50
16347;DHT22;8283;48.504;13.734;2023-01-19T02:23:50;7.60;64.60
16347;DHT22;8283;48.504;13.734;2023-01-19T02:26:39;7.60;64.80
16347;DHT22;8283;48.504;13.734;2023-01-19T02:29:25;7.60;64.80
16347;DHT22;8283;48.504;13.734;2023-01-19T02:32:11;7.60;64.70
16347;DHT22;8283;48.504;13.734;2023-01-19T02:34:56;7.50;64.90
16347;DHT22;8283;48.504;13.734;2023-01-19T02:37:41;7.50;65.00
16347;DHT22;8283;48.504;13.734;2023-01-19T02:40:27;7.50;65.40
16347;DHT22;8283;48.504;13.734;2023-01-19T02:43:11;7.40;65.00
16347;DHT22;8283;48.504;13.734;2023-01-19T02:45:57;7.40;65.00
16347;DHT22;8283;48.504;13.734;2023-01-19T02:48:42;7.40;65.00
16347;DHT22;8283;48.504;13.734;2023-01-19T02:51:27;7.10;64.90
16347;DHT22;8283;48.504;13.734;2023-01-19T02:57:58;7.40;65.40
16347;DHT22;8283;48.504;13.734;2023-01-19T03:00:51;7.50;65.40
16347;DHT22;8283;48.504;13.734;2023-01-19T03:07:11;7.40;65.70
16347;DHT22;8283;48.504;13.734;2023-01-19T03:10:06;7.50;65.60
16347;DHT22;8283;48.504;13.734;2023-01-19T03:13:10;7.40;65.20
16347;DHT22;8283;48.504;13.734;2023-01-19T03:22:15;7.40;65.40
16347;DHT22;8283;48.504;13.734;2023-01-19T03:25:02;7.00;65.30
16347;DHT22;8283;48.504;13.734;2023-01-19T03:27:49;7.40;65.20
16347;DHT22;8283;48.504;13.734;2023-01-19T03:30:39;7.40;65.20
16347;DHT22;8283;48.504;13.734;2023-01-19T03:33:31;7.40;65.40
16347;DHT22;8283;48.504;13.734;2023-01-19T03:36:31;7.40;65.10
16347;DHT22;8283;48.504;13.734;2023-01-19T03:39:26;7.40;65.10
16347;DHT22;8283;48.504;13.734;2023-01-19T03:42:13;7.40;65.20
16347;DHT22;8283;48.504;13.734;2023-01-19T03:45:00;7.40;65.10
16347;DHT22;8283;48.504;13.734;2023-01-19T03:47:44;7.40;65.00
16347;DHT22;8283;48.504;13.734;2023-01-19T03:50:29;7.40;64.90
16347;DHT22;8283;48.504;13.734;2023-01-19T03:53:15;7.40;64.90
16347;DHT22;8283;48.504;13.734;2023-01-19T03:56:00;7.40;65.10
16347;DHT22;8283;48.504;13.734;2023-01-19T03:58:45;7.40;65.10
16347;DHT22;8283;48.504;13.734;2023-01-19T04:01:30;7.40;64.90
16347;DHT22;8283;48.504;13.734;2023-01-19T04:04:15;7.40;64.90
16347;DHT22;8283;48.504;13.734;2023-01-19T04:06:59;7.40;65.20
16347;DHT22;8283;48.504;13.734;2023-01-19T04:09:44;7.40;65.00
16347;DHT22;8283;48.504;13.734;2023-01-19T04:12:28;7.40;64.80
16347;DHT22;8283;48.504;13.734;2023-01-19T04:15:14;7.40;64.90
16347;DHT22;8283;48.504;13.734;2023-01-19T04:17:59;7.40;64.80
16347;DHT22;8283;48.504;13.734;2023-01-19T04:20:43;7.40;64.90
16347;DHT22;8283;48.504;13.734;2023-01-19T04:23:28;7.40;64.70
16347;DHT22;8283;48.504;13.734;2023-01-19T04:26:12;7.40;64.70
16347;DHT22;8283;48.504;13.734;2023-01-19T04:28:57;7.40;64.90
16347;DHT22;8283;48.504;13.734;2023-01-19T04:31:42;7.40;64.80
16347;DHT22;8283;48.504;13.734;2023-01-19T04:34:26;7.30;64.90
16347;DHT22;8283;48.504;13.734;2023-01-19T04:37:10;7.30;64.80
16347;DHT22;8283;48.504;13.734;2023-01-19T04:39:55;7.30;65.00
16347;DHT22;8283;48.504;13.734;2023-01-19T04:42:43;7.30;65.00
16347;DHT22;8283;48.504;13.734;2023-01-19T04:45:28;7.30;64.90
16347;DHT22;8283;48.504;13.734;2023-01-19T04:48:13;7.40;64.90
16347;DHT22;8283;48.504;13.734;2023-01-19T04:50:57;7.30;64.90
16347;DHT22;8283;48.504;13.734;2023-01-19T04:53:42;7.30;64.80
16347;DHT22;8283;48.504;13.734;2023-01-19T04:56:27;7.30;64.90
16347;DHT22;8283;48.504;13.734;2023-01-19T04:59:12;7.30;64.70
16347;DHT22;8283;48.504;13.734;2023-01-19T05:01:56;7.30;64.60
16347;DHT22;8283;48.504;13.734;2023-01-19T05:04:41;7.30;64.60
16347;DHT22;8283;48.504;13.734;2023-01-19T05:07:25;7.30;64.60
16347;DHT22;8283;48.504;13.734;2023-01-19T05:10:11;7.30;64.70
16347;DHT22;8283;48.504;13.734;2023-01-19T05:12:56;7.30;65.00
16347;DHT22;8283;48.504;13.734;2023-01-19T05:15:40;7.20;64.90
16347;DHT22;8283;48.504;13.734;2023-01-19T05:18:25;7.20;64.90
16347;DHT22;8283;48.504;13.734;2023-01-19T05:21:09;7.20;65.00
16347;DHT22;8283;48.504;13.734;2023-01-19T05:23:54;7.20;65.00
16347;DHT22;8283;48.504;13.734;2023-01-19T05:26:38;7.20;65.00
16347;DHT22;8283;48.504;13.734;2023-01-19T05:29:23;7.10;64.90
16347;DHT22;8283;48.504;13.734;2023-01-19T05:32:07;7.20;65.10
16347;DHT22;8283;48.504;13.734;2023-01-19T05:34:51;7.20;65.00
16347;DHT22;8283;48.504;13.734;2023-01-19T05:37:36;7.20;65.00
16347;DHT22;8283;48.504;13.734;2023-01-19T05:40:20;7.20;65.10
16347;DHT22;8283;48.504;13.734;2023-01-19T05:43:04;7.20;65.00
16347;DHT22;8283;48.504;13.734;2023-01-19T05:45:49;7.20;65.00
16347;DHT22;8283;48.504;13.734;2023-01-19T05:48:33;7.20;65.00
16347;DHT22;8283;48.504;13.734;2023-01-19T05:51:18;7.20;65.00
16347;DHT22;8283;48.504;13.734;2023-01-19T05:54:06;7.20;65.00
16347;DHT22;8283;48.504;13.734;2023-01-19T05:56:50;7.20;65.20
16347;DHT22;8283;48.504;13.734;2023-01-19T05:59:35;7.20;65.20
16347;DHT22;8283;48.504;13.734;2023-01-19T06:02:19;7.20;65.20
16347;DHT22;8283;48.504;13.734;2023-01-19T06:05:04;7.60;65.40
16347;DHT22;8283;48.504;13.734;2023-01-19T06:07:49;7.10;65.20
16347;DHT22;8283;48.504;13.734;2023-01-19T06:10:33;7.10;65.20
16347;DHT22;8283;48.504;13.734;2023-01-19T06:13:18;7.00;65.10
16347;DHT22;8283;48.504;13.734;2023-01-19T06:16:03;7.00;65.20
16347;DHT22;8283;48.504;13.734;2023-01-19T06:18:47;7.00;65.20
16347;DHT22;8283;48.504;13.734;2023-01-19T06:21:32;7.00;65.30
16347;DHT22;8283;48.504;13.734;2023-01-19T06:24:17;6.90;65.20
16347;DHT22;8283;48.504;13.734;2023-01-19T06:27:02;6.90;65.20
16347;DHT22;8283;48.504;13.734;2023-01-19T06:29:46;6.90;65.00
16347;DHT22;8283;48.504;13.734;2023-01-19T06:32:31;6.90;65.00
16347;DHT22;8283;48.504;13.734;2023-01-19T06:35:15;6.90;64.90
16347;DHT22;8283;48.504;13.734;2023-01-19T06:38:01;6.80;64.90
16347;DHT22;8283;48.504;13.734;2023-01-19T06:40:51;6.80;65.60
16347;DHT22;8283;48.504;13.734;2023-01-19T06:43:36;6.80;64.80
16347;DHT22;8283;48.504;13.734;2023-01-19T06:46:21;6.80;64.90
16347;DHT22;8283;48.504;13.734;2023-01-19T06:49:06;6.70;64.70
16347;DHT22;8283;48.504;13.734;2023-01-19T06:51:51;6.80;64.80
16347;DHT22;8283;48.504;13.734;2023-01-19T06:54:35;6.70;64.80
16347;DHT22;8283;48.504;13.734;2023-01-19T06:57:19;6.70;64.80
16347;DHT22;8283;48.504;13.734;2023-01-19T07:00:05;6.70;64.70
16347;DHT22;8283;48.504;13.734;2023-01-19T07:02:51;6.70;64.70
16347;DHT22;8283;48.504;13.734;2023-01-19T07:05:35;6.70;64.70
16347;DHT22;8283;48.504;13.734;2023-01-19T07:08:20;6.70;64.80
16347;DHT22;8283;48.504;13.734;2023-01-19T07:11:06;6.70;64.90
16347;DHT22;8283;48.504;13.734;2023-01-19T07:13:53;6.70;65.10
16347;DHT22;8283;48.504;13.734;2023-01-19T07:16:38;6.70;64.90
16347;DHT22;8283;48.504;13.734;2023-01-19T07:19:22;6.60;65.00
16347;DHT22;8283;48.504;13.734;2023-01-19T07:22:06;6.60;65.00
16347;DHT22;8283;48.504;13.734;2023-01-19T07:24:50;6.60;64.90
16347;DHT22;8283;48.504;13.734;2023-01-19T07:27:35;6.60;64.90
16347;DHT22;8283;48.504;13.734;2023-01-19T07:30:19;6.60;64.50
16347;DHT22;8283;48.504;13.734;2023-01-19T07:33:04;6.60;64.50
16347;DHT22;8283;48.504;13.734;2023-01-19T07:35:48;6.60;64.50
16347;DHT22;8283;48.504;13.734;2023-01-19T07:38:33;6.60;64.40
16347;DHT22;8283;48.504;13.734;2023-01-19T07:41:17;6.50;64.30
16347;DHT22;8283;48.504;13.734;2023-01-19T07:44:02;6.50;64.50
16347;DHT22;8283;48.504;13.734;2023-01-19T07:46:46;6.50;64.20
16347;DHT22;8283;48.504;13.734;2023-01-19T07:49:31;6.50;64.40
16347;DHT22;8283;48.504;13.734;2023-01-19T07:52:15;6.50;64.60
16347;DHT22;8283;48.504;13.734;2023-01-19T07:55:00;6.50;64.60
16347;DHT22;8283;48.504;13.734;2023-01-19T07:57:44;6.60;64.70
16347;DHT22;8283;48.504;13.734;2023-01-19T08:00:28;6.60;64.20
16347;DHT22;8283;48.504;13.734;2023-01-19T08:03:12;6.60;64.40
16347;DHT22;8283;48.504;13.734;2023-01-19T08:05:56;6.60;64.50
16347;DHT22;8283;48.504;13.734;2023-01-19T08:08:42;6.60;64.40
16347;DHT22;8283;48.504;13.734;2023-01-19T08:11:27;6.60;64.10
16347;DHT22;8283;48.504;13.734;2023-01-19T08:14:11;6.70;64.20
16347;DHT22;8283;48.504;13.734;2023-01-19T08:17:00;6.70;64.20
16347;DHT22;8283;48.504;13.734;2023-01-19T08:19:44;6.70;64.40
16347;DHT22;8283;48.504;13.734;2023-01-19T08:22:28;6.70;64.20
16347;DHT22;8283;48.504;13.734;2023-01-19T08:25:13;6.70;63.80
16347;DHT22;8283;48.504;13.734;2023-01-19T08:27:57;6.70;63.70
16347;DHT22;8283;48.504;13.734;2023-01-19T08:30:42;6.70;63.80
16347;DHT22;8283;48.504;13.734;2023-01-19T08:33:27;6.70;63.90
16347;DHT22;8283;48.504;13.734;2023-01-19T08:36:11;6.70;63.60
16347;DHT22;8283;48.504;13.734;2023-01-19T08:38:56;6.70;63.70
16347;DHT22;8283;48.504;13.734;2023-01-19T08:41:41;6.70;64.10
16347;DHT22;8283;48.504;13.734;2023-01-19T08:44:26;6.70;63.70
16347;DHT22;8283;48.504;13.734;2023-01-19T08:47:10;6.70;63.90
16347;DHT22;8283;48.504;13.734;2023-01-19T08:49:54;6.70;63.70
16347;DHT22;8283;48.504;13.734;2023-01-19T08:52:38;6.80;64.10
16347;DHT22;8283;48.504;13.734;2023-01-19T08:55:24;6.80;64.20
16347;DHT22;8283;48.504;13.734;2023-01-19T08:58:08;6.80;64.40
16347;DHT22;8283;48.504;13.734;2023-01-19T09:00:53;7.30;65.30
16347;DHT22;8283;48.504;13.734;2023-01-19T09:03:38;6.90;64.20
16347;DHT22;8283;48.504;13.734;2023-01-19T09:06:22;7.00;64.50
16347;DHT22;8283;48.504;13.734;2023-01-19T09:09:08;7.00;64.10
16347;DHT22;8283;48.504;13.734;2023-01-19T09:11:53;7.00;63.80
16347;DHT22;8283;48.504;13.734;2023-01-19T09:14:38;7.10;63.80
16347;DHT22;8283;48.504;13.734;2023-01-19T09:17:23;7.00;63.30
16347;DHT22;8283;48.504;13.734;2023-01-19T09:20:08;7.00;63.80
16347;DHT22;8283;48.504;13.734;2023-01-19T09:22:54;7.00;63.60
16347;DHT22;8283;48.504;13.734;2023-01-19T09:25:40;7.00;63.40
16347;DHT22;8283;48.504;13.734;2023-01-19T09:28:25;7.00;63.20
16347;DHT22;8283;48.504;13.734;2023-01-19T09:31:10;6.90;63.00
16347;DHT22;8283;48.504;13.734;2023-01-19T09:33:54;6.90;63.10
16347;DHT22;8283;48.504;13.734;2023-01-19T09:36:38;6.90;63.20
16347;DHT22;8283;48.504;13.734;2023-01-19T09:39:23;6.90;63.00
16347;DHT22;8283;48.504;13.734;2023-01-19T09:45:03;6.80;62.40
16347;DHT22;8283;48.504;13.734;2023-01-19T09:47:49;6.80;62.60
16347;DHT22;8283;48.504;13.734;2023-01-19T09:50:38;6.80;62.30
16347;DHT22;8283;48.504;13.734;2023-01-19T09:53:41;6.80;62.20
16347;DHT22;8283;48.504;13.734;2023-01-19T09:56:29;6.80;62.30
16347;DHT22;8283;48.504;13.734;2023-01-19T09:59:30;6.80;62.70
16347;DHT22;8283;48.504;13.734;2023-01-19T10:02:35;6.80;62.70
16347;DHT22;8283;48.504;13.734;2023-01-19T10:05:31;6.80;61.30
16347;DHT22;8283;48.504;13.734;2023-01-19T10:11:34;6.80;62.10
16347;DHT22;8283;48.504;13.734;2023-01-19T10:14:37;6.80;62.10
16347;DHT22;8283;48.504;13.734;2023-01-19T10:17:35;6.80;61.40
16347;DHT22;8283;48.504;13.734;2023-01-19T10:20:27;6.80;61.90
16347;DHT22;8283;48.504;13.734;2023-01-19T10:23:20;6.80;61.40
16347;DHT22;8283;48.504;13.734;2023-01-19T10:26:22;6.80;61.60
16347;DHT22;8283;48.504;13.734;2023-01-19T10:29:29;6.80;61.30
16347;DHT22;8283;48.504;13.734;2023-01-19T10:32:22;6.70;61.60
16347;DHT22;8283;48.504;13.734;2023-01-19T10:35:15;6.70;62.10
16347;DHT22;8283;48.504;13.734;2023-01-19T10:38:11;6.70;62.40
16347;DHT22;8283;48.504;13.734;2023-01-19T10:41:06;6.80;62.30
16347;DHT22;8283;48.504;13.734;2023-01-19T10:44:00;6.80;62.20
16347;DHT22;8283;48.504;13.734;2023-01-19T10:46:46;6.80;61.90
16347;DHT22;8283;48.504;13.734;2023-01-19T10:49:38;6.90;62.40
16347;DHT22;8283;48.504;13.734;2023-01-19T10:52:30;6.90;62.50
16347;DHT22;8283;48.504;13.734;2023-01-19T10:55:27;6.90;61.80
16347;DHT22;8283;48.504;13.734;2023-01-19T10:58:29;7.00;62.40
16347;DHT22;8283;48.504;13.734;2023-01-19T11:01:25;7.00;61.50
16347;DHT22;8283;48.504;13.734;2023-01-19T11:04:26;7.00;61.30
16347;DHT22;8283;48.504;13.734;2023-01-19T11:13:03;7.00;61.40
16347;DHT22;8283;48.504;13.734;2023-01-19T11:15:58;7.10;61.40
16347;DHT22;8283;48.504;13.734;2023-01-19T11:18:50;7.10;61.60
16347;DHT22;8283;48.504;13.734;2023-01-19T11:21:35;7.10;60.90
16347;DHT22;8283;48.504;13.734;2023-01-19T11:24:20;7.10;60.70
16347;DHT22;8283;48.504;13.734;2023-01-19T11:27:06;7.00;60.40
16347;DHT22;8283;48.504;13.734;2023-01-19T11:30:00;7.00;60.70
16347;DHT22;8283;48.504;13.734;2023-01-19T11:32:45;7.00;62.20
16347;DHT22;8283;48.504;13.734;2023-01-19T11:35:39;7.10;61.30
16347;DHT22;8283;48.504;13.734;2023-01-19T11:38:24;7.10;61.10
16347;DHT22;8283;48.504;13.734;2023-01-19T11:41:39;7.20;61.40
16347;DHT22;8283;48.504;13.734;2023-01-19T11:44:34;7.20;60.10
16347;DHT22;8283;48.504;13.734;2023-01-19T11:47:33;7.20;59.00
16347;DHT22;8283;48.504;13.734;2023-01-19T11:50:28;7.20;60.00
16347;DHT22;8283;48.504;13.734;2023-01-19T11:53:31;7.20;59.40
16347;DHT22;8283;48.504;13.734;2023-01-19T11:56:19;7.20;59.50
16347;DHT22;8283;48.504;13.734;2023-01-19T11:59:10;7.20;60.10
16347;DHT22;8283;48.504;13.734;2023-01-19T12:01:58;7.30;60.20
16347;DHT22;8283;48.504;13.734;2023-01-19T12:04:44;7.30;60.40
16347;DHT22;8283;48.504;13.734;2023-01-19T12:07:33;7.30;59.90
16347;DHT22;8283;48.504;13.734;2023-01-19T12:10:26;7.40;59.60
16347;DHT22;8283;48.504;13.734;2023-01-19T12:13:22;7.40;60.10
16347;DHT22;8283;48.504;13.734;2023-01-19T12:16:11;7.40;59.70
16347;DHT22;8283;48.504;13.734;2023-01-19T12:19:04;7.40;60.10
16347;DHT22;8283;48.504;13.734;2023-01-19T12:21:49;7.40;59.80
16347;DHT22;8283;48.504;13.734;2023-01-19T12:24:40;7.40;60.10
16347;DHT22;8283;48.504;13.734;2023-01-19T12:27:43;7.40;59.50
16347;DHT22;8283;48.504;13.734;2023-01-19T12:30:28;7.40;59.20
16347;DHT22;8283;48.504;13.734;2023-01-19T12:42:22;7.40;59.70
16347;DHT22;8283;48.504;13.734;2023-01-19T12:45:13;7.40;59.00
16347;DHT22;8283;48.504;13.734;2023-01-19T12:47:59;7.40;59.70
16347;DHT22;8283;48.504;13.734;2023-01-19T12:50:45;7.50;59.70
16347;DHT22;8283;48.504;13.734;2023-01-19T12:53:30;7.50;60.20
16347;DHT22;8283;48.504;13.734;2023-01-19T12:56:15;7.60;59.90
16347;DHT22;8283;48.504;13.734;2023-01-19T12:59:00;7.60;59.00
16347;DHT22;8283;48.504;13.734;2023-01-19T13:08:20;7.50;58.60
16347;DHT22;8283;48.504;13.734;2023-01-19T13:19:23;7.40;59.80
16347;DHT22;8283;48.504;13.734;2023-01-19T13:22:49;7.40;59.20
16347;DHT22;8283;48.504;13.734;2023-01-19T13:25:34;7.50;59.10
16347;DHT22;8283;48.504;13.734;2023-01-19T13:28:27;7.40;59.70
16347;DHT22;8283;48.504;13.734;2023-01-19T13:31:13;7.50;59.70
16347;DHT22;8283;48.504;13.734;2023-01-19T13:34:00;7.50;60.10
16347;DHT22;8283;48.504;13.734;2023-01-19T13:36:56;7.60;60.20
16347;DHT22;8283;48.504;13.734;2023-01-19T13:39:43;7.60;59.10
16347;DHT22;8283;48.504;13.734;2023-01-19T13:42:39;7.70;59.60
16347;DHT22;8283;48.504;13.734;2023-01-19T13:45:33;7.70;58.40
16347;DHT22;8283;48.504;13.734;2023-01-19T13:48:24;8.10;58.80
16347;DHT22;8283;48.504;13.734;2023-01-19T13:51:16;7.70;59.00
16347;DHT22;8283;48.504;13.734;2023-01-19T13:54:01;7.70;58.50
16347;DHT22;8283;48.504;13.734;2023-01-19T13:56:48;7.70;58.50
16347;DHT22;8283;48.504;13.734;2023-01-19T13:59:33;7.70;58.60
16347;DHT22;8283;48.504;13.734;2023-01-19T14:02:18;7.70;58.60
16347;DHT22;8283;48.504;13.734;2023-01-19T14:05:14;7.90;58.80
16347;DHT22;8283;48.504;13.734;2023-01-19T14:13:43;7.70;59.30
16347;DHT22;8283;48.504;13.734;2023-01-19T14:16:28;7.70;59.30
16347;DHT22;8283;48.504;13.734;2023-01-19T14:19:12;7.80;59.10
16347;DHT22;8283;48.504;13.734;2023-01-19T14:22:03;7.80;59.20
16347;DHT22;8283;48.504;13.734;2023-01-19T14:24:48;7.80;59.00
16347;DHT22;8283;48.504;13.734;2023-01-19T14:27:32;7.90;58.50
16347;DHT22;8283;48.504;13.734;2023-01-19T14:30:22;7.90;58.10
16347;DHT22;8283;48.504;13.734;2023-01-19T14:33:32;7.80;58.20
16347;DHT22;8283;48.504;13.734;2023-01-19T14:36:34;7.80;58.40
16347;DHT22;8283;48.504;13.734;2023-01-19T14:39:23;7.80;58.00
16347;DHT22;8283;48.504;13.734;2023-01-19T14:42:14;7.80;58.70
16347;DHT22;8283;48.504;13.734;2023-01-19T14:45:02;7.80;58.90
16347;DHT22;8283;48.504;13.734;2023-01-19T14:47:55;7.80;58.80
16347;DHT22;8283;48.504;13.734;2023-01-19T14:50:41;7.80;58.80
16347;DHT22;8283;48.504;13.734;2023-01-19T14:53:26;7.80;59.20
16347;DHT22;8283;48.504;13.734;2023-01-19T14:56:26;7.80;59.20
16347;DHT22;8283;48.504;13.734;2023-01-19T14:59:11;7.90;59.20
16347;DHT22;8283;48.504;13.734;2023-01-19T15:01:56;7.90;58.80
16347;DHT22;8283;48.504;13.734;2023-01-19T15:04:40;7.90;59.10
16347;DHT22;8283;48.504;13.734;2023-01-19T15:07:24;7.90;59.30
16347;DHT22;8283;48.504;13.734;2023-01-19T15:10:21;7.90;59.30
16347;DHT22;8283;48.504;13.734;2023-01-19T15:13:14;8.00;59.40
16347;DHT22;8283;48.504;13.734;2023-01-19T15:16:00;8.00;59.30
16347;DHT22;8283;48.504;13.734;2023-01-19T15:18:47;8.00;59.30
16347;DHT22;8283;48.504;13.734;2023-01-19T15:21:31;8.00;59.30
16347;DHT22;8283;48.504;13.734;2023-01-19T15:24:16;8.00;59.60
16347;DHT22;8283;48.504;13.734;2023-01-19T15:27:00;8.30;59.30
16347;DHT22;8283;48.504;13.734;2023-01-19T15:29:45;8.10;59.30
16347;DHT22;8283;48.504;13.734;2023-01-19T15:32:30;8.10;59.40
16347;DHT22;8283;48.504;13.734;2023-01-19T15:35:21;8.10;59.50
16347;DHT22;8283;48.504;13.734;2023-01-19T15:38:21;8.10;59.00
16347;DHT22;8283;48.504;13.734;2023-01-19T15:41:14;8.10;59.30
16347;DHT22;8283;48.504;13.734;2023-01-19T15:44:01;8.10;59.30
16347;DHT22;8283;48.504;13.734;2023-01-19T15:46:47;8.10;59.40
16347;DHT22;8283;48.504;13.734;2023-01-19T15:49:33;8.10;59.40
16347;DHT22;8283;48.504;13.734;2023-01-19T15:52:17;8.10;59.40
16347;DHT22;8283;48.504;13.734;2023-01-19T15:55:02;8.00;59.30
16347;DHT22;8283;48.504;13.734;2023-01-19T15:57:47;8.00;59.10
16347;DHT22;8283;48.504;13.734;2023-01-19T16:00:33;8.00;59.20
16347;DHT22;8283;48.504;13.734;2023-01-19T16:03:18;8.00;59.20
16347;DHT22;8283;48.504;13.734;2023-01-19T16:06:02;7.90;59.20
16347;DHT22;8283;48.504;13.734;2023-01-19T16:08:47;7.90;59.30
16347;DHT22;8283;48.504;13.734;2023-01-19T16:11:33;7.80;59.30
16347;DHT22;8283;48.504;13.734;2023-01-19T16:14:18;7.80;59.30
16347;DHT22;8283;48.504;13.734;2023-01-19T16:17:02;7.80;59.20
16347;DHT22;8283;48.504;13.734;2023-01-19T16:19:48;7.80;59.20
16347;DHT22;8283;48.504;13.734;2023-01-19T16:22:33;7.80;59.30
16347;DHT22;8283;48.504;13.734;2023-01-19T16:25:17;7.70;59.30
16347;DHT22;8283;48.504;13.734;2023-01-19T16:28:02;7.70;59.50
16347;DHT22;8283;48.504;13.734;2023-01-19T16:30:46;7.70;59.60
16347;DHT22;8283;48.504;13.734;2023-01-19T16:33:31;7.70;59.70
16347;DHT22;8283;48.504;13.734;2023-01-19T16:36:38;8.10;60.00
16347;DHT22;8283;48.504;13.734;2023-01-19T16:39:21;7.70;59.80
16347;DHT22;8283;48.504;13.734;2023-01-19T16:42:05;7.70;59.70
16347;DHT22;8283;48.504;13.734;2023-01-19T16:44:50;7.80;59.80
16347;DHT22;8283;48.504;13.734;2023-01-19T16:47:35;7.70;59.70
16347;DHT22;8283;48.504;13.734;2023-01-19T16:50:19;7.70;59.70
16347;DHT22;8283;48.504;13.734;2023-01-19T16:53:04;7.70;59.70
16347;DHT22;8283;48.504;13.734;2023-01-19T16:55:48;7.70;59.70
16347;DHT22;8283;48.504;13.734;2023-01-19T16:58:33;7.70;59.70
16347;DHT22;8283;48.504;13.734;2023-01-19T17:01:18;7.70;59.80
16347;DHT22;8283;48.504;13.734;2023-01-19T17:04:03;7.70;59.80
16347;DHT22;8283;48.504;13.734;2023-01-19T17:06:48;7.60;59.80
16347;DHT22;8283;48.504;13.734;2023-01-19T17:09:35;7.60;59.70
16347;DHT22;8283;48.504;13.734;2023-01-19T17:12:20;7.60;59.50
16347;DHT22;8283;48.504;13.734;2023-01-19T17:15:05;7.60;59.50
16347;DHT22;8283;48.504;13.734;2023-01-19T17:17:49;7.50;59.60
16347;DHT22;8283;48.504;13.734;2023-01-19T17:20:34;7.50;59.70
16347;DHT22;8283;48.504;13.734;2023-01-19T17:23:19;7.50;59.80
16347;DHT22;8283;48.504;13.734;2023-01-19T17:26:04;7.40;59.70
16347;DHT22;8283;48.504;13.734;2023-01-19T17:28:48;7.40;59.70
16347;DHT22;8283;48.504;13.734;2023-01-19T17:31:33;7.40;60.50
16347;DHT22;8283;48.504;13.734;2023-01-19T17:34:18;7.30;59.90
16347;DHT22;8283;48.504;13.734;2023-01-19T17:37:02;7.40;59.90
16347;DHT22;8283;48.504;13.734;2023-01-19T17:39:47;7.30;59.90
16347;DHT22;8283;48.504;13.734;2023-01-19T17:42:32;7.30;59.90
16347;DHT22;8283;48.504;13.734;2023-01-19T17:45:16;7.30;59.90
16347;DHT22;8283;48.504;13.734;2023-01-19T17:48:02;7.30;60.00
16347;DHT22;8283;48.504;13.734;2023-01-19T17:50:47;7.30;60.00
16347;DHT22;8283;48.504;13.734;2023-01-19T17:53:35;7.30;60.00
16347;DHT22;8283;48.504;13.734;2023-01-19T17:56:23;7.30;60.00
16347;DHT22;8283;48.504;13.734;2023-01-19T17:59:10;7.30;60.00
16347;DHT22;8283;48.504;13.734;2023-01-19T18:01:55;7.40;60.10
16347;DHT22;8283;48.504;13.734;2023-01-19T18:04:39;7.20;60.00
16347;DHT22;8283;48.504;13.734;2023-01-19T18:07:24;7.20;60.10
16347;DHT22;8283;48.504;13.734;2023-01-19T18:10:08;7.20;60.10
16347;DHT22;8283;48.504;13.734;2023-01-19T18:12:54;7.20;60.20
16347;DHT22;8283;48.504;13.734;2023-01-19T18:15:38;7.20;60.20
16347;DHT22;8283;48.504;13.734;2023-01-19T18:18:22;7.20;60.20
16347;DHT22;8283;48.504;13.734;2023-01-19T18:21:09;7.20;60.30
16347;DHT22;8283;48.504;13.734;2023-01-19T18:24:01;7.20;60.40
16347;DHT22;8283;48.504;13.734;2023-01-19T18:26:46;7.20;60.60
16347;DHT22;8283;48.504;13.734;2023-01-19T18:29:31;7.20;60.40
16347;DHT22;8283;48.504;13.734;2023-01-19T18:32:15;7.20;60.40
16347;DHT22;8283;48.504;13.734;2023-01-19T18:35:00;7.20;60.50
16347;DHT22;8283;48.504;13.734;2023-01-19T18:37:45;7.20;60.40
16347;DHT22;8283;48.504;13.734;2023-01-19T18:40:30;7.20;60.40
16347;DHT22;8283;48.504;13.734;2023-01-19T18:43:14;7.20;60.40
16347;DHT22;8283;48.504;13.734;2023-01-19T18:45:59;7.10;60.40
16347;DHT22;8283;48.504;13.734;2023-01-19T18:48:43;7.20;60.40
16347;DHT22;8283;48.504;13.734;2023-01-19T18:51:28;7.20;60.50
16347;DHT22;8283;48.504;13.734;2023-01-19T18:54:12;7.10;60.40